Time;durP1;ratioP1;P1;durP2;ratioP2;P2;SDS_P1;SDS_P2;PMS_P1;PMS_P2;Temp;Humidity;BMP_temperature;BMP_pressure;BME280_temperature;BME280_humidity;BME280_pressure;Samples;Min_cycle;Max_cycle;Signal;HPM_P1;HPM_P2
2022/03/21 00:00:55;;;;;;;59.92;37.53;;;4.80;99.90;;;;;;5035313;28;20045;-73
2022/03/21 00:03:28;;;;;;;60.40;39.72;;;4.80;99.90;;;;;;5045252;28;20045;-74
2022/03/21 00:05:54;;;;;;;56.40;36.53;;;4.80;99.90;;;;;;5038089;28;20399;-74
2022/03/21 00:08:22;;;;;;;56.03;37.22;;;4.80;99.90;;;;;;5034050;28;20114;-73
2022/03/21 00:10:49;;;;;;;51.83;37.63;;;4.90;99.90;;;;;;5037100;28;20054;-74
2022/03/21 00:13:15;;;;;;;56.60;38.05;;;4.90;99.90;;;;;;5042864;28;20128;-74
2022/03/21 00:15:45;;;;;;;57.08;40.15;;;4.90;99.90;;;;;;5050856;28;20066;-73
2022/03/21 00:18:13;;;;;;;56.72;38.80;;;4.90;99.90;;;;;;5052681;28;20098;-73
2022/03/21 00:20:40;;;;;;;61.28;38.33;;;4.90;99.90;;;;;;5050966;28;20051;-73
2022/03/21 00:23:06;;;;;;;54.13;37.08;;;4.90;99.90;;;;;;5049616;28;20160;-73
2022/03/21 00:25:32;;;;;;;56.55;38.85;;;4.90;99.90;;;;;;5050753;28;20522;-73
2022/03/21 00:27:58;;;;;;;57.53;37.15;;;4.80;99.90;;;;;;5051242;28;20135;-74
2022/03/21 00:30:25;;;;;;;55.90;36.97;;;4.70;99.90;;;;;;5050772;28;20426;-73
2022/03/21 00:32:51;;;;;;;57.85;37.25;;;4.80;99.90;;;;;;5042113;28;20042;-74
2022/03/21 00:35:16;;;;;;;58.80;38.33;;;4.80;99.90;;;;;;5032010;28;20091;-74
2022/03/21 00:37:44;;;;;;;61.15;39.10;;;4.70;99.90;;;;;;5033730;28;20454;-74
2022/03/21 00:40:11;;;;;;;55.15;36.75;;;4.70;99.90;;;;;;5039983;28;20049;-74
2022/03/21 00:42:38;;;;;;;56.78;35.75;;;4.70;99.90;;;;;;5051914;28;20055;-74
2022/03/21 00:45:06;;;;;;;56.22;36.08;;;4.70;99.90;;;;;;5052108;28;20098;-74
2022/03/21 00:47:32;;;;;;;61.88;38.35;;;4.60;99.90;;;;;;5050922;28;20557;-74
2022/03/21 00:49:58;;;;;;;53.42;35.20;;;4.70;99.90;;;;;;5051282;28;20040;-74
2022/03/21 00:52:24;;;;;;;51.53;35.40;;;4.60;99.90;;;;;;5052099;28;20052;-74
2022/03/21 00:54:50;;;;;;;55.63;37.38;;;4.60;99.90;;;;;;5050976;28;20127;-74
2022/03/21 00:57:15;;;;;;;57.88;36.45;;;4.60;99.90;;;;;;5051302;28;20568;-74
2022/03/21 00:59:41;;;;;;;58.55;36.63;;;4.60;99.90;;;;;;5052169;28;20048;-74
2022/03/21 01:02:08;;;;;;;59.67;38.63;;;4.50;99.90;;;;;;5051726;28;20521;-75
2022/03/21 01:04:35;;;;;;;53.28;35.50;;;4.50;99.90;;;;;;5049904;28;20037;-74
2022/03/21 01:07:02;;;;;;;56.92;37.40;;;4.50;99.90;;;;;;5051473;28;20480;-74
2022/03/21 01:09:27;;;;;;;54.35;35.47;;;4.50;99.90;;;;;;5050684;28;20403;-74
2022/03/21 01:11:53;;;;;;;52.85;35.30;;;4.50;99.90;;;;;;5051120;28;20045;-74
2022/03/21 01:14:18;;;;;;;50.47;34.45;;;4.40;99.90;;;;;;5050151;28;20498;-73
2022/03/21 01:16:44;;;;;;;51.22;35.13;;;4.40;99.90;;;;;;5050274;28;20446;-73
2022/03/21 01:19:09;;;;;;;61.97;36.47;;;4.40;99.90;;;;;;5050691;28;20048;-74
2022/03/21 01:21:35;;;;;;;55.17;32.88;;;4.40;99.90;;;;;;5046014;28;20030;-74
2022/03/21 01:24:01;;;;;;;53.10;34.13;;;4.30;99.90;;;;;;5037295;28;20041;-74
2022/03/21 01:26:27;;;;;;;53.95;33.28;;;4.30;99.90;;;;;;5043760;28;20041;-74
2022/03/21 01:28:52;;;;;;;48.15;31.73;;;4.30;99.90;;;;;;5049913;28;20499;-73
2022/03/21 01:31:19;;;;;;;46.50;31.92;;;4.20;99.90;;;;;;5031506;28;20049;-74
2022/03/21 01:33:45;;;;;;;52.90;34.97;;;4.10;99.90;;;;;;5030723;28;20381;-74
2022/03/21 01:36:10;;;;;;;47.88;31.83;;;4.00;99.90;;;;;;5030042;28;20045;-74
2022/03/21 01:38:36;;;;;;;48.45;32.95;;;4.00;99.90;;;;;;5030680;28;20038;-73
2022/03/21 01:41:02;;;;;;;48.17;30.65;;;3.90;99.90;;;;;;5029864;28;20085;-73
2022/03/21 01:43:27;;;;;;;50.40;32.20;;;3.90;99.90;;;;;;5030606;28;20053;-73
2022/03/21 01:45:53;;;;;;;48.08;31.83;;;3.80;99.90;;;;;;5029232;28;20041;-74
2022/03/21 01:48:19;;;;;;;45.00;30.85;;;3.80;99.90;;;;;;5029874;28;20053;-73
2022/03/21 01:50:45;;;;;;;48.25;29.58;;;3.80;99.90;;;;;;5031194;28;20045;-74
2022/03/21 01:55:56;;;;;;;44.30;30.10;;;3.70;99.90;;;;;;5040555;28;20080;-74
2022/03/21 01:58:24;;;;;;;45.90;30.70;;;3.70;99.90;;;;;;5049644;28;20139;-74
2022/03/21 02:00:51;;;;;;;43.92;29.58;;;3.60;99.90;;;;;;5049699;28;20082;-73
2022/03/21 02:03:19;;;;;;;44.72;29.48;;;3.50;99.90;;;;;;5030767;28;20120;-73
2022/03/21 02:05:47;;;;;;;45.95;31.02;;;2.20;99.90;;;;;;5031226;28;20038;-73
2022/03/21 02:08:13;;;;;;;44.47;28.88;;;3.40;99.90;;;;;;5037973;28;20056;-73
2022/03/21 02:10:42;;;;;;;47.75;30.33;;;3.40;99.90;;;;;;5038435;28;20554;-73
2022/03/21 02:13:09;;;;;;;49.25;30.83;;;3.40;99.90;;;;;;5044787;28;20145;-74
2022/03/21 02:15:35;;;;;;;46.83;28.63;;;3.30;99.90;;;;;;5031850;28;20508;-74
2022/03/21 02:18:02;;;;;;;44.90;29.65;;;3.40;99.90;;;;;;5041809;28;20045;-73
2022/03/21 02:20:35;;;;;;;43.88;27.83;;;3.30;99.90;;;;;;5050346;28;20077;-73
2022/03/21 02:23:16;;;;;;;47.97;29.58;;;3.30;99.90;;;;;;5049931;28;20051;-74
2022/03/21 02:25:43;;;;;;;45.13;28.65;;;3.30;99.90;;;;;;5045679;28;20056;-74
2022/03/21 02:28:14;;;;;;;40.67;26.92;;;3.30;99.90;;;;;;5029680;28;20598;-74
2022/03/21 02:30:42;;;;;;;46.83;28.75;;;3.30;99.90;;;;;;5033337;28;20052;-73
2022/03/21 02:33:09;;;;;;;50.75;29.52;;;3.30;99.90;;;;;;5042383;28;20056;-74
2022/03/21 02:35:36;;;;;;;39.75;27.88;;;3.20;99.90;;;;;;5029184;28;20551;-74
2022/03/21 02:38:02;;;;;;;42.30;26.98;;;3.10;99.90;;;;;;5041674;28;20391;-73
2022/03/21 02:40:28;;;;;;;43.95;28.20;;;3.10;99.90;;;;;;5032581;28;20042;-74
2022/03/21 02:42:54;;;;;;;39.50;26.05;;;3.10;99.90;;;;;;5042405;28;20052;-73
2022/03/21 02:45:20;;;;;;;44.45;26.83;;;3.00;99.90;;;;;;5044677;28;20421;-73
2022/03/21 02:47:46;;;;;;;38.42;25.02;;;3.00;99.90;;;;;;5048755;28;20045;-73
2022/03/21 02:50:15;;;;;;;39.22;25.83;;;3.00;99.90;;;;;;5037986;28;20103;-74
2022/03/21 02:52:45;;;;;;;41.67;26.60;;;2.90;99.90;;;;;;5034420;28;20056;-74
2022/03/21 02:55:10;;;;;;;40.83;25.92;;;2.80;99.90;;;;;;5034151;28;20053;-73
2022/03/21 02:57:36;;;;;;;43.05;26.20;;;2.80;99.90;;;;;;5035469;28;20112;-74
2022/03/21 03:00:02;;;;;;;37.65;25.15;;;2.70;99.90;;;;;;5045834;28;20158;-73
2022/03/21 03:02:28;;;;;;;42.15;25.63;;;2.70;99.90;;;;;;5049505;28;20472;-74
2022/03/21 03:04:53;;;;;;;37.22;25.02;;;2.60;99.90;;;;;;5052531;28;20128;-73
2022/03/21 03:07:19;;;;;;;40.50;25.30;;;2.60;99.90;;;;;;5045915;28;20079;-73
2022/03/21 03:09:44;;;;;;;36.33;24.00;;;2.60;99.90;;;;;;5034301;28;20099;-73
2022/03/21 03:12:10;;;;;;;41.85;24.25;;;2.50;99.90;;;;;;5033065;28;20136;-73
2022/03/21 03:14:36;;;;;;;39.22;25.40;;;2.50;99.90;;;;;;5032984;28;20049;-73
2022/03/21 03:17:02;;;;;;;37.20;23.40;;;2.50;99.90;;;;;;5033854;28;20553;-73
2022/03/21 03:19:28;;;;;;;40.08;24.75;;;2.90;99.90;;;;;;5033550;28;20041;-73
2022/03/21 03:21:55;;;;;;;39.20;24.17;;;2.50;99.90;;;;;;5032694;28;20499;-73
2022/03/21 03:24:25;;;;;;;37.85;23.70;;;2.60;99.90;;;;;;5033303;28;20498;-74
2022/03/21 03:26:50;;;;;;;39.53;23.50;;;2.60;99.90;;;;;;5032429;28;20125;-73
2022/03/21 03:29:16;;;;;;;36.63;23.58;;;2.70;99.90;;;;;;5035583;28;20065;-73
2022/03/21 03:31:42;;;;;;;40.30;25.67;;;2.70;99.90;;;;;;5045932;28;20085;-74
2022/03/21 03:34:08;;;;;;;36.83;23.75;;;2.70;99.90;;;;;;5048712;28;20068;-74
2022/03/21 03:36:33;;;;;;;34.65;22.95;;;2.70;99.90;;;;;;5053771;28;20041;-74
2022/03/21 03:38:59;;;;;;;37.17;22.83;;;2.60;99.90;;;;;;5032925;28;20583;-74
2022/03/21 03:41:27;;;;;;;36.58;22.98;;;2.60;99.90;;;;;;5033571;28;20045;-74
2022/03/21 03:43:52;;;;;;;37.33;23.25;;;2.70;99.90;;;;;;5032088;28;20041;-74
2022/03/21 03:46:18;;;;;;;33.10;20.88;;;2.70;99.90;;;;;;5037222;28;20111;-73
2022/03/21 03:48:45;;;;;;;33.58;22.10;;;2.60;99.90;;;;;;5045471;28;20061;-73
2022/03/21 03:51:11;;;;;;;35.30;21.33;;;2.70;99.90;;;;;;5041353;28;20053;-73
2022/03/21 03:53:38;;;;;;;31.05;19.25;;;2.70;99.90;;;;;;5046408;28;20410;-73
2022/03/21 03:56:04;;;;;;;31.58;19.85;;;2.70;99.90;;;;;;5051593;28;20059;-73
2022/03/21 03:58:30;;;;;;;32.38;17.92;;;2.60;99.90;;;;;;5053268;28;20045;-74
2022/03/21 04:00:56;;;;;;;31.40;19.35;;;2.60;99.90;;;;;;5052275;28;20053;-73
2022/03/21 04:06:06;;;;;;;35.47;20.02;;;2.60;99.90;;;;;;5053086;28;20461;-73
2022/03/21 04:08:31;;;;;;;30.20;19.65;;;2.60;99.90;;;;;;5052545;28;20033;-73
2022/03/21 04:10:57;;;;;;;30.00;21.33;;;2.50;99.90;;;;;;5052862;28;20052;-73
2022/03/21 04:13:22;;;;;;;31.40;19.70;;;2.50;99.90;;;;;;5050930;28;20072;-73
2022/03/21 04:15:48;;;;;;;29.73;19.00;;;2.40;99.90;;;;;;5049485;28;20046;-73
2022/03/21 04:18:14;;;;;;;30.15;17.95;;;2.40;99.90;;;;;;5036935;28;20125;-73
2022/03/21 04:20:40;;;;;;;29.48;18.55;;;2.40;99.90;;;;;;5040174;28;20045;-74
2022/03/21 04:23:07;;;;;;;26.95;18.38;;;2.30;99.90;;;;;;5045551;28;20112;-74
2022/03/21 04:25:33;;;;;;;30.23;17.77;;;2.40;99.90;;;;;;5041414;28;20095;-74
2022/03/21 04:27:59;;;;;;;30.20;18.60;;;2.20;99.90;;;;;;5040316;28;20125;-74
2022/03/21 04:30:25;;;;;;;33.20;18.38;;;2.20;99.90;;;;;;5042245;28;20072;-74
2022/03/21 04:32:51;;;;;;;31.75;19.33;;;2.20;99.90;;;;;;5043746;28;20129;-74
2022/03/21 04:35:16;;;;;;;29.73;18.10;;;2.20;99.90;;;;;;5035689;28;20077;-74
2022/03/21 04:37:42;;;;;;;29.08;16.73;;;2.10;99.90;;;;;;5052125;28;20474;-73
2022/03/21 04:40:09;;;;;;;28.00;17.60;;;2.20;99.90;;;;;;5034266;28;20053;-73
2022/03/21 04:42:36;;;;;;;27.10;17.38;;;2.00;99.90;;;;;;5031947;28;20128;-73
2022/03/21 04:45:02;;;;;;;26.42;17.38;;;2.10;99.90;;;;;;5032277;28;20045;-74
2022/03/21 04:47:28;;;;;;;30.85;17.38;;;2.10;99.90;;;;;;5034616;28;20141;-74
2022/03/21 04:49:54;;;;;;;25.20;16.20;;;2.10;99.90;;;;;;5043606;28;20144;-74
2022/03/21 04:52:19;;;;;;;27.27;16.90;;;2.10;99.90;;;;;;5036430;28;20136;-74
2022/03/21 04:54:45;;;;;;;28.60;16.05;;;2.10;99.90;;;;;;5043064;28;20069;-74
2022/03/21 04:57:12;;;;;;;25.67;16.27;;;2.10;99.90;;;;;;5035874;28;20045;-73
2022/03/21 04:59:38;;;;;;;25.83;16.98;;;2.00;99.90;;;;;;5046015;28;20059;-73
2022/03/21 05:02:04;;;;;;;28.38;16.95;;;2.00;99.90;;;;;;5038219;28;20045;-74
2022/03/21 05:04:31;;;;;;;25.13;16.23;;;2.00;99.90;;;;;;5041701;28;20495;-74
2022/03/21 05:06:57;;;;;;;27.63;17.98;;;2.10;99.90;;;;;;5042020;28;20064;-74
2022/03/21 05:09:23;;;;;;;24.95;15.65;;;2.00;99.90;;;;;;5037068;28;20052;-74
2022/03/21 05:11:48;;;;;;;29.25;16.80;;;2.00;99.90;;;;;;5048229;28;20045;-73
2022/03/21 05:14:16;;;;;;;27.02;16.80;;;1.90;99.90;;;;;;5034023;28;20049;-73
2022/03/21 05:16:41;;;;;;;25.17;17.23;;;2.00;99.90;;;;;;5031134;28;20045;-74
2022/03/21 05:19:07;;;;;;;26.42;15.15;;;1.80;99.90;;;;;;5040466;28;20595;-74
2022/03/21 05:21:32;;;;;;;28.38;16.05;;;1.80;99.90;;;;;;5051846;28;20063;-74
2022/03/21 05:32:11;;;;;;;24.23;14.88;;;1.60;99.90;;;;;;5029195;28;20062;-74
2022/03/21 05:37:20;;;;;;;24.65;15.13;;;1.60;99.90;;;;;;5050042;28;20495;-74
2022/03/21 05:42:30;;;;;;;25.27;15.90;;;1.50;99.90;;;;;;5031595;28;20054;-74
2022/03/21 05:44:55;;;;;;;25.70;15.00;;;1.40;99.90;;;;;;5030414;28;20049;-74
2022/03/21 05:47:21;;;;;;;23.05;14.90;;;1.50;99.90;;;;;;5030012;28;20139;-74
2022/03/21 05:49:46;;;;;;;22.58;14.88;;;1.50;99.90;;;;;;5031258;28;20100;-74
2022/03/21 05:52:12;;;;;;;26.13;16.83;;;1.50;99.90;;;;;;5030258;28;20080;-74
2022/03/21 05:54:37;;;;;;;25.70;15.13;;;1.60;99.90;;;;;;5031176;28;20045;-74
2022/03/21 05:57:03;;;;;;;25.13;14.88;;;1.60;99.90;;;;;;5031055;28;20053;-74
2022/03/21 06:02:14;;;;;;;26.30;14.93;;;1.60;99.90;;;;;;5048456;28;20045;-74
2022/03/21 06:04:40;;;;;;;26.65;15.20;;;1.70;99.90;;;;;;5038920;28;20568;-74
2022/03/21 06:07:05;;;;;;;24.55;14.32;;;1.70;99.90;;;;;;5031793;28;20042;-74
2022/03/21 06:09:31;;;;;;;23.25;14.65;;;1.80;99.90;;;;;;5031133;28;20041;-74
2022/03/21 06:11:56;;;;;;;25.95;14.85;;;1.80;99.90;;;;;;5030650;28;20052;-72
2022/03/21 06:14:22;;;;;;;23.27;14.75;;;1.90;99.90;;;;;;5030335;28;20084;-73
2022/03/21 06:16:48;;;;;;;26.88;15.75;;;1.90;99.90;;;;;;5031143;28;20041;-73
2022/03/21 06:19:14;;;;;;;27.88;16.17;;;2.00;99.90;;;;;;5029638;28;20558;-73
2022/03/21 06:21:39;;;;;;;25.27;15.98;;;2.10;99.90;;;;;;5031765;28;20128;-73
2022/03/21 06:24:06;;;;;;;24.95;16.00;;;2.10;99.90;;;;;;5043703;28;20044;-74
2022/03/21 06:26:31;;;;;;;24.33;15.55;;;2.20;99.90;;;;;;5036738;28;20132;-73
2022/03/21 06:28:57;;;;;;;22.75;14.52;;;2.40;99.90;;;;;;5049335;28;20144;-73
2022/03/21 06:31:22;;;;;;;28.88;15.73;;;2.30;99.90;;;;;;5046314;28;20102;-73
2022/03/21 06:33:48;;;;;;;26.23;16.02;;;2.40;99.90;;;;;;5040963;28;20415;-74
2022/03/21 06:36:14;;;;;;;25.02;15.07;;;2.50;99.90;;;;;;5037473;28;20630;-73
2022/03/21 06:38:40;;;;;;;21.80;13.60;;;2.50;99.90;;;;;;5036786;28;20061;-73
2022/03/21 06:41:07;;;;;;;29.50;15.30;;;2.50;99.90;;;;;;5035342;28;20090;-73
2022/03/21 06:43:32;;;;;;;25.30;15.95;;;2.60;99.90;;;;;;5042220;28;20049;-73
2022/03/21 06:45:58;;;;;;;25.73;14.98;;;2.70;99.90;;;;;;5034508;28;20037;-73
2022/03/21 06:48:25;;;;;;;25.00;15.95;;;2.70;99.90;;;;;;5038046;28;20563;-73
2022/03/21 06:50:53;;;;;;;23.25;15.65;;;2.80;99.90;;;;;;5046970;28;20057;-73
2022/03/21 06:53:19;;;;;;;22.90;14.90;;;2.90;99.90;;;;;;5041549;28;20049;-74
2022/03/21 06:55:45;;;;;;;25.98;17.30;;;2.90;99.90;;;;;;5050817;28;20102;-73
2022/03/21 06:58:13;;;;;;;25.55;15.00;;;3.00;99.90;;;;;;5042208;28;20606;-73
2022/03/21 07:00:43;;;;;;;25.05;14.80;;;3.10;99.90;;;;;;5038714;28;20477;-73
2022/03/21 07:03:09;;;;;;;28.83;15.98;;;3.20;99.90;;;;;;5036055;28;20056;-73
2022/03/21 07:05:36;;;;;;;25.92;16.75;;;3.30;99.90;;;;;;5044879;28;20049;-74
2022/03/21 07:08:03;;;;;;;27.67;16.25;;;3.40;99.90;;;;;;5035223;28;20041;-73
2022/03/21 07:10:28;;;;;;;34.05;19.65;;;3.50;99.90;;;;;;5039716;28;20049;-73
2022/03/21 07:12:54;;;;;;;27.13;17.65;;;3.50;99.90;;;;;;5038867;28;20041;-74
2022/03/21 07:15:20;;;;;;;28.85;18.48;;;3.60;99.90;;;;;;5039695;28;20095;-73
2022/03/21 07:17:45;;;;;;;33.83;17.88;;;3.70;99.90;;;;;;5038752;28;20501;-73
2022/03/21 07:20:11;;;;;;;25.27;16.75;;;3.70;99.90;;;;;;5040446;28;20359;-74
2022/03/21 07:22:37;;;;;;;25.05;17.00;;;3.80;99.90;;;;;;5051203;28;20052;-73
2022/03/21 07:25:03;;;;;;;23.65;16.77;;;3.90;99.90;;;;;;5039326;28;20385;-74
2022/03/21 07:27:29;;;;;;;24.30;17.42;;;4.00;99.90;;;;;;5046217;28;20578;-73
2022/03/21 07:29:54;;;;;;;27.70;17.05;;;4.10;99.90;;;;;;5045625;28;20064;-73
2022/03/21 07:32:20;;;;;;;25.17;17.02;;;4.20;99.90;;;;;;5052883;28;20132;-73
2022/03/21 07:34:46;;;;;;;27.45;16.45;;;4.20;99.90;;;;;;5044888;28;20045;-73
2022/03/21 07:37:11;;;;;;;28.80;17.20;;;4.30;99.90;;;;;;5031664;28;20057;-73
2022/03/21 07:39:39;;;;;;;27.42;18.23;;;4.40;99.90;;;;;;5033444;28;20042;-73
2022/03/21 07:42:07;;;;;;;31.08;20.08;;;4.40;99.90;;;;;;5033475;28;20162;-73
2022/03/21 07:47:20;;;;;;;29.27;19.80;;;4.70;99.90;;;;;;5036969;28;20049;-74
2022/03/21 07:49:46;;;;;;;30.13;19.33;;;4.80;99.90;;;;;;5040159;28;20088;-73
2022/03/21 07:52:12;;;;;;;27.52;19.13;;;5.00;99.90;;;;;;5044671;28;20065;-73
2022/03/21 07:54:40;;;;;;;33.40;21.02;;;5.00;99.90;;;;;;5035061;28;20038;-74
2022/03/21 07:57:06;;;;;;;32.25;21.48;;;5.20;99.90;;;;;;5041591;28;20075;-73
2022/03/21 07:59:32;;;;;;;33.03;21.40;;;5.30;99.90;;;;;;5033207;28;20124;-74
2022/03/21 08:01:58;;;;;;;35.88;22.20;;;5.40;99.90;;;;;;5036705;28;20136;-74
2022/03/21 08:04:25;;;;;;;34.50;21.33;;;5.60;99.90;;;;;;5033370;28;20041;-73
2022/03/21 08:06:53;;;;;;;38.38;22.80;;;5.70;99.90;;;;;;5032518;28;20418;-73
2022/03/21 08:09:19;;;;;;;35.33;22.92;;;5.90;99.90;;;;;;5032884;28;20052;-74
2022/03/21 08:11:45;;;;;;;30.98;21.10;;;6.00;99.90;;;;;;5031700;28;20049;-74
2022/03/21 08:14:11;;;;;;;36.08;22.45;;;6.20;99.90;;;;;;5030492;28;20053;-74
2022/03/21 08:16:37;;;;;;;30.35;22.70;;;6.30;99.90;;;;;;5037273;28;20148;-74
2022/03/21 08:19:03;;;;;;;36.17;22.67;;;6.50;99.90;;;;;;5038653;28;20098;-73
2022/03/21 08:21:28;;;;;;;34.63;23.10;;;6.70;99.90;;;;;;5040150;28;20042;-74
2022/03/21 08:23:54;;;;;;;37.95;23.60;;;6.80;99.90;;;;;;5032785;28;20050;-74
2022/03/21 08:26:19;;;;;;;34.58;22.48;;;7.00;99.90;;;;;;5032610;28;20061;-74
2022/03/21 08:28:45;;;;;;;30.45;22.13;;;7.10;99.90;;;;;;5031781;28;20093;-74
2022/03/21 08:31:13;;;;;;;32.63;22.63;;;7.30;99.90;;;;;;5032775;28;20568;-82
2022/03/21 08:33:40;;;;;;;31.85;22.25;;;7.50;99.90;;;;;;5046792;28;20045;-81
2022/03/21 08:36:06;;;;;;;35.78;21.55;;;7.70;99.90;;;;;;5035814;28;20420;-74
2022/03/21 08:38:31;;;;;;;36.80;21.50;;;7.90;99.90;;;;;;5032558;28;20132;-74
2022/03/21 08:40:58;;;;;;;33.58;20.98;;;8.10;99.90;;;;;;5032482;28;20114;-79
2022/03/21 08:43:24;;;;;;;36.03;22.48;;;8.20;99.90;;;;;;5039823;28;20045;-71
2022/03/21 08:45:50;;;;;;;31.13;22.48;;;8.30;99.90;;;;;;5031224;28;20369;-75
2022/03/21 08:48:16;;;;;;;33.00;22.08;;;8.40;99.90;;;;;;5033749;28;20115;-72
2022/03/21 08:50:42;;;;;;;32.72;22.10;;;8.50;99.90;;;;;;5037961;28;20071;-70
2022/03/21 08:53:08;;;;;;;31.63;21.42;;;8.50;99.90;;;;;;5035072;28;20056;-71
2022/03/21 08:55:34;;;;;;;32.25;20.60;;;8.70;99.90;;;;;;5039945;28;20092;-72
2022/03/21 08:57:59;;;;;;;42.72;21.00;;;8.70;99.90;;;;;;5034399;28;20549;-71
2022/03/21 09:00:26;;;;;;;33.83;21.90;;;8.80;99.90;;;;;;5048753;28;20057;-70
2022/03/21 09:02:54;;;;;;;33.17;21.20;;;8.90;99.90;;;;;;5037005;28;20180;-71
2022/03/21 09:05:21;;;;;;;40.78;23.15;;;9.00;99.90;;;;;;5039918;28;20055;-71
2022/03/21 09:07:46;;;;;;;33.70;21.15;;;9.10;99.90;;;;;;5042911;28;20045;-72
2022/03/21 09:10:14;;;;;;;32.75;21.88;;;9.10;99.90;;;;;;5041387;28;20041;-71
2022/03/21 09:12:40;;;;;;;38.20;21.63;;;9.30;99.90;;;;;;5039961;28;20499;-73
2022/03/21 09:15:06;;;;;;;34.58;20.80;;;9.30;99.90;;;;;;5040270;28;20124;-72
2022/03/21 09:17:31;;;;;;;30.40;20.67;;;9.40;99.90;;;;;;5033151;28;20172;-72
2022/03/21 09:19:57;;;;;;;31.95;21.25;;;9.50;99.90;;;;;;5040415;28;20053;-73
2022/03/21 09:22:22;;;;;;;35.17;20.73;;;9.60;99.90;;;;;;5030075;28;20046;-73
2022/03/21 09:24:48;;;;;;;27.85;19.92;;;9.70;99.90;;;;;;5036404;28;20045;-72
2022/03/21 09:27:16;;;;;;;38.40;20.23;;;9.80;99.90;;;;;;5038728;28;20410;-73
2022/03/21 09:29:42;;;;;;;28.75;19.30;;;9.90;99.90;;;;;;5041789;28;20064;-70
2022/03/21 09:32:07;;;;;;;24.85;20.00;;;9.90;99.90;;;;;;5040300;28;20061;-70
2022/03/21 09:34:39;;;;;;;31.13;19.35;;;10.00;99.90;;;;;;5030139;28;20411;-69
2022/03/21 09:37:05;;;;;;;30.25;19.10;;;10.10;99.90;;;;;;5029490;28;20160;-70
2022/03/21 09:39:30;;;;;;;28.25;18.63;;;10.20;99.90;;;;;;5044955;28;20481;-70
2022/03/21 09:41:56;;;;;;;33.72;19.52;;;10.30;99.90;;;;;;5038674;28;20037;-70
2022/03/21 09:44:22;;;;;;;27.67;19.02;;;10.40;99.90;;;;;;5029880;28;20049;-70
2022/03/21 09:46:48;;;;;;;30.33;19.67;;;10.50;99.90;;;;;;5049944;28;20110;-70
2022/03/21 09:49:16;;;;;;;25.73;17.80;;;10.60;99.90;;;;;;5045951;28;20533;-69
2022/03/21 09:51:43;;;;;;;27.40;17.33;;;10.60;99.90;;;;;;5028594;28;20388;-75
2022/03/21 09:54:09;;;;;;;28.25;18.52;;;10.70;99.90;;;;;;5028894;28;20136;-71
2022/03/21 09:56:35;;;;;;;21.80;16.30;;;10.80;99.90;;;;;;5030648;28;20037;-74
2022/03/21 09:59:01;;;;;;;28.98;17.50;;;10.90;99.90;;;;;;5046524;28;20102;-73
2022/03/21 10:01:29;;;;;;;25.23;16.33;;;11.00;99.90;;;;;;5046087;28;20119;-79
2022/03/21 10:03:55;;;;;;;22.33;15.68;;;11.10;99.90;;;;;;5030191;28;20049;-80
2022/03/21 10:06:37;;;;;;;23.27;16.92;;;11.20;99.90;;;;;;5032736;28;20045;-81
2022/03/21 10:09:04;;;;;;;22.70;17.05;;;11.30;99.90;;;;;;5029680;28;20049;-77
2022/03/21 10:11:30;;;;;;;23.58;15.98;;;11.40;99.90;;;;;;5029178;28;20064;-79
2022/03/21 10:13:55;;;;;;;20.90;14.57;;;11.40;99.90;;;;;;5029530;28;20045;-72
2022/03/21 10:16:21;;;;;;;24.10;15.75;;;11.50;99.90;;;;;;5040030;28;20041;-72
2022/03/21 10:18:53;;;;;;;23.88;15.15;;;11.60;99.90;;;;;;5043221;28;20077;-73
2022/03/21 10:21:20;;;;;;;25.83;16.65;;;11.50;99.90;;;;;;5045145;28;20077;-71
2022/03/21 10:23:56;;;;;;;22.58;14.90;;;11.60;99.90;;;;;;5034843;28;20120;-70
2022/03/21 10:26:26;;;;;;;22.45;15.77;;;11.70;99.90;;;;;;5043120;28;20484;-73
2022/03/21 10:28:58;;;;;;;24.30;13.75;;;11.80;99.90;;;;;;5034603;28;20049;-73
2022/03/21 10:31:45;;;;;;;15.48;11.68;;;11.90;99.90;;;;;;5039020;28;20049;-75
2022/03/21 10:34:13;;;;;;;24.13;15.25;;;11.90;98.10;;;;;;5039773;28;20057;-74
2022/03/21 10:37:05;;;;;;;19.58;14.05;;;12.00;99.30;;;;;;5049807;28;20041;-74
2022/03/21 10:39:33;;;;;;;24.00;14.82;;;12.00;95.10;;;;;;5046817;28;20056;-74
2022/03/21 10:42:04;;;;;;;19.85;14.18;;;12.10;96.90;;;;;;5047194;28;20033;-74
2022/03/21 10:44:33;;;;;;;19.85;14.55;;;12.20;96.90;;;;;;5050037;28;20049;-76
2022/03/21 10:47:04;;;;;;;20.27;14.82;;;12.20;95.50;;;;;;5049306;28;20033;-74
2022/03/21 10:49:42;;;;;;;21.00;15.57;;;12.20;94.00;;;;;;5049639;28;20048;-74
2022/03/21 10:52:08;;;;;;;21.10;14.60;;;12.30;91.00;;;;;;5044363;28;20041;-74
2022/03/21 10:54:51;;;;;;;23.63;15.30;;;12.30;89.10;;;;;;5034951;28;20083;-74
2022/03/21 10:57:36;;;;;;;17.83;13.40;;;12.40;88.10;;;;;;5050279;28;20056;-75
2022/03/21 11:00:16;;;;;;;20.65;14.75;;;12.40;86.20;;;;;;5033713;28;20050;-74
2022/03/21 11:03:13;;;;;;;20.30;15.40;;;12.40;82.10;;;;;;5029858;28;20116;-77
2022/03/21 11:05:41;;;;;;;20.90;15.38;;;12.50;86.30;;;;;;5036879;28;20524;-74
2022/03/21 11:08:09;;;;;;;20.17;13.82;;;12.60;90.10;;;;;;5048197;28;20049;-74
2022/03/21 11:10:35;;;;;;;24.80;15.93;;;12.50;87.00;;;;;;5043513;28;20392;-75
2022/03/21 11:13:02;;;;;;;22.63;15.40;;;12.50;85.00;;;;;;5032972;28;20060;-77
2022/03/21 11:15:30;;;;;;;20.35;14.80;;;12.60;84.80;;;;;;5036560;28;20099;-76
2022/03/21 11:17:57;;;;;;;22.08;15.90;;;12.70;84.00;;;;;;5037249;28;20056;-76
2022/03/21 11:20:24;;;;;;;21.15;15.43;;;12.70;80.40;;;;;;5039685;28;20373;-76
2022/03/21 11:22:52;;;;;;;25.15;14.30;;;12.70;77.30;;;;;;5034051;28;20045;-75
2022/03/21 11:25:18;;;;;;;19.40;13.40;;;12.70;79.50;;;;;;5041963;28;20044;-76
2022/03/21 11:28:16;;;;;;;23.13;15.38;;;12.70;80.70;;;;;;5037563;28;20120;-75
2022/03/21 11:30:59;;;;;;;22.15;14.48;;;12.90;80.80;;;;;;5050437;28;20458;-76
2022/03/21 11:33:57;;;;;;;23.42;16.13;;;12.90;76.80;;;;;;5033901;28;20049;-75
2022/03/21 11:36:23;;;;;;;21.70;15.23;;;13.10;73.60;;;;;;4982133;28;20060;-75
2022/03/21 11:38:56;;;;;;;28.73;16.23;;;13.10;79.80;;;;;;5045205;28;20587;-75
2022/03/21 11:41:25;;;;;;;20.30;15.40;;;13.20;81.60;;;;;;5045763;28;20041;-75
2022/03/21 11:44:03;;;;;;;24.85;14.82;;;13.10;81.10;;;;;;5034582;28;20404;-75
2022/03/21 11:46:36;;;;;;;23.20;15.30;;;13.10;76.70;;;;;;5032828;28;20057;-75
2022/03/21 11:49:04;;;;;;;18.27;13.18;;;13.10;80.60;;;;;;5032140;28;20065;-76
2022/03/21 11:51:38;;;;;;;18.88;14.68;;;13.20;78.70;;;;;;5032966;28;20053;-75
2022/03/21 11:54:07;;;;;;;21.88;13.63;;;13.30;75.00;;;;;;5033180;28;20080;-76
2022/03/21 11:56:43;;;;;;;21.35;13.70;;;13.20;75.40;;;;;;5031988;28;20049;-76
2022/03/21 11:59:32;;;;;;;21.60;13.57;;;13.30;76.30;;;;;;5031169;28;20053;-76
2022/03/21 12:01:58;;;;;;;22.90;14.25;;;13.30;76.60;;;;;;5031569;28;20052;-74
2022/03/21 12:04:23;;;;;;;25.02;15.15;;;13.30;77.60;;;;;;5041540;28;20135;-73
2022/03/21 12:06:50;;;;;;;19.23;13.75;;;13.30;77.60;;;;;;5052419;28;20065;-73
2022/03/21 12:09:16;;;;;;;18.63;14.25;;;13.40;77.70;;;;;;5048665;28;20868;-73
2022/03/21 12:11:42;;;;;;;20.85;14.43;;;13.40;77.10;;;;;;5032186;28;20035;-74
2022/03/21 12:14:40;;;;;;;21.55;13.35;;;13.50;76.80;;;;;;5031215;28;20080;-73
2022/03/21 12:17:05;;;;;;;19.45;13.77;;;13.50;73.60;;;;;;5040351;28;20534;-73
2022/03/21 12:19:57;;;;;;;18.95;13.57;;;13.60;74.60;;;;;;5036228;28;20077;-73
2022/03/21 12:22:29;;;;;;;20.48;14.48;;;13.70;71.60;;;;;;5031805;28;20082;-73
2022/03/21 12:25:05;;;;;;;18.25;14.25;;;13.70;71.60;;;;;;5032863;28;20049;-73
2022/03/21 12:27:33;;;;;;;20.98;14.82;;;13.90;72.60;;;;;;5032575;28;20049;-76
2022/03/21 12:30:23;;;;;;;21.55;15.20;;;13.90;71.50;;;;;;5047129;28;20577;-75
2022/03/21 12:33:15;;;;;;;19.35;14.20;;;14.00;66.00;;;;;;5051947;28;20061;-76
2022/03/21 12:35:44;;;;;;;25.33;14.93;;;14.10;65.70;;;;;;5031713;28;20057;-73
2022/03/21 12:38:34;;;;;;;15.02;11.85;;;14.10;68.80;;;;;;5042685;28;20061;-76
2022/03/21 12:41:03;;;;;;;17.38;13.50;;;14.20;69.00;;;;;;5036580;28;20095;-75
2022/03/21 12:43:29;;;;;;;18.83;14.27;;;14.20;68.50;;;;;;5044724;28;20090;-75
2022/03/21 12:46:06;;;;;;;18.13;12.60;;;14.20;68.70;;;;;;5048981;28;20484;-75
2022/03/21 12:48:40;;;;;;;19.50;14.15;;;14.20;69.90;;;;;;5049105;28;20045;-75
2022/03/21 12:51:06;;;;;;;18.35;14.10;;;14.30;70.60;;;;;;5050748;28;20056;-75
2022/03/21 12:53:44;;;;;;;18.42;13.38;;;14.30;70.90;;;;;;5052163;28;20130;-75
2022/03/21 12:56:15;;;;;;;21.40;13.85;;;14.40;68.40;;;;;;5049891;28;20053;-75
2022/03/21 12:58:45;;;;;;;17.77;13.52;;;14.40;68.40;;;;;;5050615;28;20048;-75
2022/03/21 13:01:16;;;;;;;20.48;12.90;;;14.50;68.90;;;;;;5051262;28;20106;-75